Time;durP1;ratioP1;P1;durP2;ratioP2;P2;SDS_P1;SDS_P2;PMS_P1;PMS_P2;Temp;Humidity;BMP_temperature;BMP_pressure;BME280_temperature;BME280_humidity;BME280_pressure;Samples;Min_cycle;Max_cycle;Signal;HPM_P1;HPM_P2
2022/10/03 00:04:15;;;;;;;;;;;8.40;99.90;;;;;;5091397;27;19912;-66
2022/10/03 00:06:52;;;;;;;;;;;8.40;99.90;;;;;;5091519;28;19962;-66
2022/10/03 00:09:25;;;;;;;;;;;8.40;99.90;;;;;;5091381;28;20381;-65
2022/10/03 00:11:55;;;;;;;;;;;8.40;99.90;;;;;;5091375;28;20333;-66
2022/10/03 00:14:41;;;;;;;;;;;8.40;99.90;;;;;;5106842;28;19909;-66
2022/10/03 00:17:26;;;;;;;;;;;8.40;99.90;;;;;;5089779;28;19908;-66
2022/10/03 00:19:58;;;;;;;;;;;8.40;99.90;;;;;;5089661;28;19909;-66
2022/10/03 00:22:27;;;;;;;;;;;8.40;99.90;;;;;;5090816;28;19913;-66
2022/10/03 00:24:59;;;;;;;;;;;8.30;99.90;;;;;;5090957;28;20269;-65
2022/10/03 00:27:44;;;;;;;;;;;8.30;99.90;;;;;;5091131;28;19931;-66
2022/10/03 00:30:28;;;;;;;;;;;8.30;99.90;;;;;;5090805;28;19935;-66
2022/10/03 00:33:03;;;;;;;;;;;8.30;99.90;;;;;;5123797;28;19957;-65
2022/10/03 00:35:42;;;;;;;;;;;8.30;99.90;;;;;;5090914;28;19958;-66
2022/10/03 00:38:28;;;;;;;;;;;8.30;99.90;;;;;;5106269;28;19912;-66
2022/10/03 00:44:12;;;;;;;;;;;8.30;99.90;;;;;;5111617;27;19919;-66
2022/10/03 00:46:58;;;;;;;;;;;8.40;99.90;;;;;;5112370;27;20332;-66
2022/10/03 00:49:43;;;;;;;;;;;8.30;99.90;;;;;;5124491;28;19908;-66
2022/10/03 00:52:16;;;;;;;;;;;8.40;99.90;;;;;;5110256;28;19995;-66
2022/10/03 00:54:59;;;;;;;;;;;8.40;99.90;;;;;;5111721;28;20363;-66
2022/10/03 00:57:33;;;;;;;;;;;8.40;99.90;;;;;;5111422;28;20336;-65
2022/10/03 01:00:19;;;;;;;;;;;8.40;99.90;;;;;;5111636;28;20350;-66
2022/10/03 01:02:52;;;;;;;;;;;8.30;99.90;;;;;;5111155;28;19962;-66
2022/10/03 01:05:37;;;;;;;;;;;8.20;99.90;;;;;;5109943;28;19908;-66
2022/10/03 01:08:11;;;;;;;;;;;8.20;99.90;;;;;;5111236;27;19908;-66
2022/10/03 01:10:56;;;;;;;;;;;8.10;99.90;;;;;;5144208;27;19907;-66
2022/10/03 01:13:31;;;;;;;;;;;8.10;99.90;;;;;;5111100;27;19995;-66
2022/10/03 01:16:16;;;;;;;;;;;8.20;99.90;;;;;;5110993;28;19957;-66
2022/10/03 01:18:54;;;;;;;;;;;8.20;99.90;;;;;;5109592;28;20285;-66
2022/10/03 01:21:40;;;;;;;;;;;8.20;99.90;;;;;;5126658;28;19957;-66
2022/10/03 01:24:25;;;;;;;;;;;8.30;99.90;;;;;;5110868;27;20039;-66
2022/10/03 01:27:07;;;;;;;;;;;8.40;99.90;;;;;;5109439;28;20283;-66
2022/10/03 01:30:23;;;;;;;;;;;8.50;99.90;;;;;;5143953;27;20447;-66
2022/10/03 01:32:58;;;;;;;;;;;8.50;99.90;;;;;;5110585;28;19912;-67
2022/10/03 01:35:43;;;;;;;;;;;8.50;99.90;;;;;;5109186;28;19908;-67
2022/10/03 01:38:19;;;;;;;;;;;8.40;99.90;;;;;;5109289;28;20366;-66
2022/10/03 01:41:05;;;;;;;;;;;8.50;99.90;;;;;;5110881;28;20271;-65
2022/10/03 01:43:51;;;;;;;;;;;8.50;99.90;;;;;;5108831;28;19931;-66
2022/10/03 01:46:18;;;;;;;;;;;8.50;99.90;;;;;;5110695;27;19908;-66
2022/10/03 01:48:50;;;;;;;;;;;8.40;99.90;;;;;;5110382;28;19909;-66
2022/10/03 01:51:21;;;;;;;;;;;8.40;99.90;;;;;;5143350;27;19908;-66
2022/10/03 01:54:06;;;;;;;;;;;8.60;99.90;;;;;;5104493;28;19915;-66
2022/10/03 01:56:38;;;;;;;;;;;8.40;99.90;;;;;;5096581;28;20012;-66
2022/10/03 01:59:07;;;;;;;;;;;8.40;99.90;;;;;;5129514;27;19908;-65
2022/10/03 02:01:52;;;;;;;;;;;8.40;99.90;;;;;;5096462;28;19908;-65
2022/10/03 02:07:28;;;;;;;;;;;8.40;99.90;;;;;;5071114;28;19913;-66
2022/10/03 02:12:40;;;;;;;;;;;8.40;99.90;;;;;;5091361;27;19918;-65
2022/10/03 02:15:09;;;;;;;;;;;8.40;99.90;;;;;;5091474;28;20325;-66
2022/10/03 02:17:51;;;;;;;;;;;8.30;99.90;;;;;;5091216;28;19915;-66
2022/10/03 02:20:22;;;;;;;;;;;8.30;99.90;;;;;;5091363;28;19956;-66
2022/10/03 02:22:51;;;;;;;;;;;8.30;99.90;;;;;;5090240;28;20354;-66
2022/10/03 02:25:25;;;;;;;;;;;8.20;99.90;;;;;;5091273;28;19970;-66
2022/10/03 02:28:02;;;;;;;;;;;8.20;99.90;;;;;;5091043;28;19909;-66
2022/10/03 02:30:34;;;;;;;;;;;8.30;99.90;;;;;;5123578;28;19913;-66
2022/10/03 02:33:19;;;;;;;;;;;8.20;99.90;;;;;;5091134;28;19908;-66
2022/10/03 02:36:05;;;;;;;;;;;8.20;99.90;;;;;;5090785;28;19908;-66
2022/10/03 02:38:40;;;;;;;;;;;8.20;99.90;;;;;;5090785;28;20322;-65
2022/10/03 02:41:25;;;;;;;;;;;8.10;99.90;;;;;;5090663;28;19957;-66
2022/10/03 02:47:06;;;;;;;;;;;8.20;99.90;;;;;;5091329;27;19912;-65
2022/10/03 02:49:49;;;;;;;;;;;8.10;99.90;;;;;;5091243;28;20367;-66
2022/10/03 02:52:29;;;;;;;;;;;8.20;99.90;;;;;;5090001;28;19957;-66
2022/10/03 02:57:59;;;;;;;;;;;8.20;99.90;;;;;;5071326;28;19913;-65
2022/10/03 03:00:45;;;;;;;;;;;8.20;99.90;;;;;;5071283;28;19962;-66
2022/10/03 03:03:30;;;;;;;;;;;8.10;99.90;;;;;;5069492;28;20012;-66
2022/10/03 03:06:16;;;;;;;;;;;8.20;99.90;;;;;;5069505;28;19942;-65
2022/10/03 03:09:00;;;;;;;;;;;8.20;99.90;;;;;;5070759;28;19958;-65
2022/10/03 03:11:46;;;;;;;;;;;8.20;99.90;;;;;;5071160;28;20368;-67
2022/10/03 03:14:30;;;;;;;;;;;8.20;99.90;;;;;;5070600;28;19913;-66
2022/10/03 03:17:02;;;;;;;;;;;8.20;99.90;;;;;;5069321;28;20283;-66
2022/10/03 03:19:47;;;;;;;;;;;8.10;99.90;;;;;;5070599;28;19909;-67
2022/10/03 03:22:33;;;;;;;;;;;8.10;99.90;;;;;;5070466;28;19909;-67
2022/10/03 03:25:06;;;;;;;;;;;8.10;99.90;;;;;;5069540;28;20398;-67
2022/10/03 03:27:52;;;;;;;;;;;8.00;99.90;;;;;;5070372;28;19960;-66
2022/10/03 03:30:21;;;;;;;;;;;7.90;99.90;;;;;;5069296;28;19909;-67
2022/10/03 03:35:45;;;;;;;;;;;7.80;99.90;;;;;;5111600;27;19912;-66
2022/10/03 03:38:23;;;;;;;;;;;7.80;99.90;;;;;;5111403;28;19944;-66
2022/10/03 03:41:08;;;;;;;;;;;7.80;99.90;;;;;;5111707;28;20427;-67
2022/10/03 03:43:43;;;;;;;;;;;7.80;99.90;;;;;;5111305;28;19908;-66
2022/10/03 03:46:19;;;;;;;;;;;7.80;99.90;;;;;;5110416;28;19931;-66
2022/10/03 03:48:53;;;;;;;;;;;7.80;99.90;;;;;;5110160;28;19908;-66
2022/10/03 03:51:32;;;;;;;;;;;7.80;99.90;;;;;;5111250;28;19908;-66
2022/10/03 03:54:06;;;;;;;;;;;7.80;99.90;;;;;;5111142;28;19912;-67
2022/10/03 03:56:40;;;;;;;;;;;7.70;99.90;;;;;;5110268;28;19908;-66
2022/10/03 03:59:26;;;;;;;;;;;7.70;99.90;;;;;;5093154;28;19962;-66
2022/10/03 04:01:57;;;;;;;;;;;7.70;99.90;;;;;;5110998;28;20302;-66
2022/10/03 04:04:42;;;;;;;;;;;7.70;99.90;;;;;;5110972;28;19962;-66
2022/10/03 04:07:16;;;;;;;;;;;7.70;99.90;;;;;;5110890;28;19908;-66
2022/10/03 04:10:01;;;;;;;;;;;7.80;99.90;;;;;;5110953;28;19908;-66
2022/10/03 04:20:57;;;;;;;;;;;7.70;99.90;;;;;;5090999;28;19919;-66
2022/10/03 04:23:31;;;;;;;;;;;7.70;99.90;;;;;;5091082;28;19912;-65
2022/10/03 04:26:05;;;;;;;;;;;7.70;99.90;;;;;;5091355;28;19973;-66
2022/10/03 04:28:37;;;;;;;;;;;7.70;99.90;;;;;;5089738;28;19912;-67
2022/10/03 04:31:07;;;;;;;;;;;7.70;99.90;;;;;;5090978;28;19966;-66
2022/10/03 04:33:44;;;;;;;;;;;7.80;99.90;;;;;;5123979;28;20357;-67
2022/10/03 04:36:29;;;;;;;;;;;7.80;99.90;;;;;;5091035;28;20380;-66
2022/10/03 04:39:15;;;;;;;;;;;7.80;99.90;;;;;;5090710;28;19908;-66
2022/10/03 04:41:52;;;;;;;;;;;7.90;99.90;;;;;;5090810;28;19912;-65
2022/10/03 04:44:33;;;;;;;;;;;7.90;99.90;;;;;;5123565;28;19913;-66
2022/10/03 04:47:05;;;;;;;;;;;7.90;99.90;;;;;;5090720;28;19908;-66
2022/10/03 04:49:36;;;;;;;;;;;7.80;99.90;;;;;;5090882;28;20007;-66
2022/10/03 04:52:12;;;;;;;;;;;7.70;99.90;;;;;;5089285;28;19909;-66
2022/10/03 04:54:47;;;;;;;;;;;7.70;99.90;;;;;;5090518;28;19916;-66
2022/10/03 04:57:20;;;;;;;;;;;7.60;99.90;;;;;;5089146;28;19912;-65
2022/10/03 05:00:08;;;;;;;;;;;7.60;99.90;;;;;;5123502;28;20374;-66
2022/10/03 05:02:42;;;;;;;;;;;7.60;99.90;;;;;;5090554;28;19915;-66
2022/10/03 05:05:14;;;;;;;;;;;7.60;99.90;;;;;;5089358;28;19908;-66
2022/10/03 05:07:52;;;;;;;;;;;7.50;99.90;;;;;;5089269;28;19914;-65
2022/10/03 05:10:37;;;;;;;;;;;7.50;99.90;;;;;;5089156;28;19916;-66
2022/10/03 05:13:10;;;;;;;;;;;7.50;99.90;;;;;;5090379;28;19916;-66
2022/10/03 05:15:55;;;;;;;;;;;7.50;99.90;;;;;;5091198;28;19912;-66
2022/10/03 05:18:29;;;;;;;;;;;7.50;99.90;;;;;;5110396;28;20007;-66
2022/10/03 05:21:04;;;;;;;;;;;7.40;99.90;;;;;;5092317;28;19908;-67
2022/10/03 05:23:43;;;;;;;;;;;7.50;99.90;;;;;;5092162;28;19954;-66
2022/10/03 05:26:29;;;;;;;;;;;7.60;99.90;;;;;;5110276;28;19916;-66
2022/10/03 05:29:04;;;;;;;;;;;7.50;99.90;;;;;;5098789;28;20293;-66
2022/10/03 05:31:49;;;;;;;;;;;7.50;99.90;;;;;;5096908;28;19915;-66
2022/10/03 05:34:23;;;;;;;;;;;7.50;99.90;;;;;;5096485;28;19908;-66
2022/10/03 05:36:56;;;;;;;;;;;7.50;99.90;;;;;;5078386;28;20279;-66
2022/10/03 05:39:36;;;;;;;;;;;7.50;99.90;;;;;;5096788;28;20418;-66
2022/10/03 05:42:21;;;;;;;;;;;7.40;99.90;;;;;;5096666;28;20362;-66
2022/10/03 05:45:00;;;;;;;;;;;7.40;99.90;;;;;;5096220;28;19969;-66
2022/10/03 05:47:46;;;;;;;;;;;7.30;99.90;;;;;;5078258;28;20397;-66
2022/10/03 05:50:32;;;;;;;;;;;7.30;99.90;;;;;;5064319;28;20378;-66
2022/10/03 05:53:17;;;;;;;;;;;7.40;99.90;;;;;;5077987;28;20378;-66
2022/10/03 05:56:03;;;;;;;;;;;7.40;99.90;;;;;;5095828;28;19909;-66
2022/10/03 05:58:48;;;;;;;;;;;7.40;99.90;;;;;;5077893;28;20282;-66
2022/10/03 06:01:27;;;;;;;;;;;7.50;99.90;;;;;;5095913;28;20374;-66
2022/10/03 06:03:58;;;;;;;;;;;7.50;99.90;;;;;;5096472;28;20413;-66
2022/10/03 06:06:43;;;;;;;;;;;7.60;99.90;;;;;;5096335;28;19908;-66
2022/10/03 06:09:29;;;;;;;;;;;7.60;99.90;;;;;;5077895;28;19908;-66
2022/10/03 06:12:14;;;;;;;;;;;7.70;99.90;;;;;;5095978;28;19993;-67
2022/10/03 06:15:01;;;;;;;;;;;7.90;99.90;;;;;;5095649;28;19908;-66
2022/10/03 06:17:35;;;;;;;;;;;7.90;99.90;;;;;;5077215;28;20038;-66
2022/10/03 06:20:14;;;;;;;;;;;8.00;99.90;;;;;;5095950;28;19909;-67
2022/10/03 06:23:00;;;;;;;;;;;8.20;99.90;;;;;;5095562;28;19915;-66
2022/10/03 06:25:45;;;;;;;;;;;8.40;99.90;;;;;;5095639;28;19931;-67
2022/10/03 06:28:30;;;;;;;;;;;9.00;99.90;;;;;;5095349;28;19908;-66
2022/10/03 06:31:16;;;;;;;;;;;9.70;99.90;;;;;;5095370;28;19908;-66
2022/10/03 06:34:01;;;;;;;;;;;9.70;99.90;;;;;;5095324;28;19908;-66
2022/10/03 06:36:47;;;;;;;;;;;10.20;99.90;;;;;;5095131;28;19939;-66
2022/10/03 06:39:27;;;;;;;;;;;10.30;99.90;;;;;;5076219;28;19915;-66
2022/10/03 06:44:54;;;;;;;;;;;10.90;99.90;;;;;;5046211;27;19917;-65
2022/10/03 06:47:39;;;;;;;;;;;11.40;99.90;;;;;;5027886;28;20305;-65
2022/10/03 06:50:12;;;;;;;;;;;11.70;99.90;;;;;;5027672;28;19910;-65
2022/10/03 06:52:58;;;;;;;;;;;12.20;99.90;;;;;;5059494;28;19910;-66
2022/10/03 06:55:43;;;;;;;;;;;12.30;99.90;;;;;;5027547;28;20363;-66
2022/10/03 07:01:12;;;;;;;;;;;12.60;99.90;;;;;;5091257;27;19912;-65
2022/10/03 07:03:58;;;;;;;;;;;12.60;99.90;;;;;;5091156;28;19916;-65
2022/10/03 07:06:37;;;;;;;;;;;12.60;99.90;;;;;;5091171;28;19908;-66
2022/10/03 07:09:10;;;;;;;;;;;13.00;99.90;;;;;;5091071;28;19912;-65
2022/10/03 07:11:55;;;;;;;;;;;13.20;99.90;;;;;;5123737;28;19931;-66
2022/10/03 07:14:37;;;;;;;;;;;13.20;99.90;;;;;;5091125;28;19977;-65
2022/10/03 07:17:13;;;;;;;;;;;13.70;99.90;;;;;;5106603;28;20382;-65
2022/10/03 07:19:48;;;;;;;;;;;13.50;99.90;;;;;;5091121;28;19912;-65
2022/10/03 07:22:25;;;;;;;;;;;13.50;99.90;;;;;;5106586;28;19908;-65
2022/10/03 07:25:11;;;;;;;;;;;13.90;99.90;;;;;;5090897;28;20025;-66
2022/10/03 07:27:51;;;;;;;;;;;14.10;99.90;;;;;;5090896;28;19962;-66
2022/10/03 07:30:18;;;;;;;;;;;14.00;99.90;;;;;;5089382;28;19909;-66
2022/10/03 07:33:04;;;;;;;;;;;14.10;99.90;;;;;;5090998;28;20367;-66
2022/10/03 07:39:05;;;;;;;;;;;14.30;99.90;;;;;;5090359;28;19999;-65
2022/10/03 07:41:23;;;;;;;;;;;14.10;99.90;;;;;;5090376;28;19912;-65
2022/10/03 07:44:08;;;;;;;;;;;14.50;99.90;;;;;;5106163;28;19958;-65
2022/10/03 07:46:54;;;;;;;;;;;14.80;99.90;;;;;;5090374;28;19908;-66
2022/10/03 07:49:39;;;;;;;;;;;14.50;99.90;;;;;;5090499;28;20003;-66
2022/10/03 07:52:25;;;;;;;;;;;14.70;99.90;;;;;;5090479;28;19915;-66
2022/10/03 07:55:10;;;;;;;;;;;14.80;99.90;;;;;;5088953;28;20362;-66
2022/10/03 07:57:47;;;;;;;;;;;15.10;99.90;;;;;;5090212;28;20354;-66
2022/10/03 08:00:18;;;;;;;;;;;14.80;99.90;;;;;;5122409;28;19924;-65
2022/10/03 08:03:04;;;;;;;;;;;15.40;99.90;;;;;;5090470;28;20290;-66
2022/10/03 08:05:36;;;;;;;;;;;15.30;99.90;;;;;;5089894;28;19915;-66
2022/10/03 08:08:04;;;;;;;;;;;15.60;99.90;;;;;;5090303;28;19908;-66
2022/10/03 08:10:30;;;;;;;;;;;;;;;;;;5117930;28;19909;-65
2022/10/03 08:13:04;;;;;;;;;;;15.80;99.90;;;;;;5076520;28;19918;-66
2022/10/03 08:15:38;;;;;;;;;;;16.20;99.90;;;;;;5091909;28;19908;-65
2022/10/03 08:18:18;;;;;;;;;;;16.20;99.90;;;;;;5076325;28;19912;-65
2022/10/03 08:20:52;;;;;;;;;;;15.90;99.90;;;;;;5076435;28;20341;-65
2022/10/03 08:23:31;;;;;;;;;;;15.50;99.90;;;;;;5076457;28;19908;-65
2022/10/03 08:26:17;;;;;;;;;;;15.30;99.90;;;;;;5076234;28;19912;-65
2022/10/03 08:28:46;;;;;;;;;;;15.20;99.90;;;;;;5074804;28;20297;-66
2022/10/03 08:31:19;;;;;;;;;;;14.70;99.90;;;;;;5091346;28;19909;-66
2022/10/03 08:33:59;;;;;;;;;;;14.50;99.90;;;;;;5091569;28;19915;-66
2022/10/03 08:36:45;;;;;;;;;;;14.40;99.90;;;;;;5074814;28;20354;-66
2022/10/03 08:39:29;;;;;;;;;;;14.40;99.90;;;;;;5074641;28;19918;-66
2022/10/03 08:42:06;;;;;;;;;;;14.30;99.90;;;;;;5074594;28;19908;-65
2022/10/03 08:44:46;;;;;;;;;;;14.80;99.90;;;;;;5074544;28;19909;-65
2022/10/03 08:47:32;;;;;;;;;;;15.10;99.90;;;;;;5075981;28;19909;-65
2022/10/03 08:50:07;;;;;;;;;;;15.20;99.90;;;;;;5075645;28;20294;-65
2022/10/03 08:52:52;;;;;;;;;;;15.20;99.90;;;;;;5075897;28;20363;-65
2022/10/03 08:55:30;;;;;;;;;;;15.40;99.90;;;;;;5075623;28;20382;-65
2022/10/03 08:58:16;;;;;;;;;;;15.80;99.90;;;;;;5075832;28;20382;-65
2022/10/03 09:01:01;;;;;;;;;;;15.60;99.90;;;;;;5093864;28;19924;-65
2022/10/03 09:03:46;;;;;;;;;;;15.10;99.90;;;;;;5080528;28;19912;-65
2022/10/03 09:06:33;;;;;;;;;;;15.40;99.90;;;;;;5095407;28;20011;-65
2022/10/03 09:09:18;;;;;;;;;;;15.60;99.90;;;;;;5095378;28;19998;-65
2022/10/03 09:14:41;;;;;;;;;;;15.70;99.90;;;;;;5091354;27;19919;-65
2022/10/03 09:17:11;;;;;;;;;;;15.90;99.90;;;;;;5091183;28;19912;-65
2022/10/03 09:19:51;;;;;;;;;;;15.70;99.90;;;;;;5091070;28;19916;-65
2022/10/03 09:22:33;;;;;;;;;;;15.70;99.90;;;;;;5091269;28;19915;-65
2022/10/03 09:25:19;;;;;;;;;;;15.90;99.90;;;;;;5091256;28;19908;-65
2022/10/03 09:30:37;;;;;;;;;;;17.10;99.90;;;;;;5071076;28;20375;-65
2022/10/03 09:33:15;;;;;;;;;;;17.00;99.90;;;;;;5070975;28;19920;-65
2022/10/03 09:36:03;;;;;;;;;;;16.80;99.90;;;;;;5070882;28;19948;-65
2022/10/03 09:38:48;;;;;;;;;;;16.80;99.90;;;;;;5070763;28;19909;-65
2022/10/03 09:41:33;;;;;;;;;;;16.70;99.90;;;;;;5070714;28;19967;-65
2022/10/03 09:44:12;;;;;;;;;;;16.80;99.90;;;;;;5070781;28;19958;-65
2022/10/03 09:47:21;;;;;;;;;;;17.00;99.90;;;;;;5070650;28;19948;-65
2022/10/03 09:52:46;;;;;;;;;;;17.30;99.90;;;;;;5071091;28;20375;-65
2022/10/03 09:55:32;;;;;;;;;;;17.60;99.90;;;;;;5070867;28;19916;-65
2022/10/03 09:58:04;;;;;;;;;;;18.30;99.90;;;;;;5070986;28;19962;-65
2022/10/03 10:00:49;;;;;;;;;;;19.20;99.90;;;;;;5071056;28;19912;-66
2022/10/03 10:11:47;;;;;;;;;;;17.50;99.90;;;;;;5070993;28;19913;-66
2022/10/03 10:14:33;;;;;;;;;;;16.70;99.90;;;;;;5070995;28;19919;-66
2022/10/03 10:17:18;;;;;;;;;;;17.00;99.90;;;;;;5070934;28;19909;-66
2022/10/03 10:19:58;;;;;;;;;;;17.40;99.90;;;;;;5069494;28;19908;-66
2022/10/03 10:22:43;;;;;;;;;;;17.70;99.90;;;;;;5070809;28;20382;-66
2022/10/03 10:25:19;;;;;;;;;;;17.90;99.90;;;;;;5070674;28;19909;-66
2022/10/03 10:27:58;;;;;;;;;;;18.40;99.90;;;;;;5070972;28;19912;-66
2022/10/03 10:30:44;;;;;;;;;;;18.50;99.90;;;;;;5070872;28;19912;-66
2022/10/03 10:33:30;;;;;;;;;;;18.40;99.90;;;;;;5070518;28;19919;-66
2022/10/03 10:36:15;;;;;;;;;;;17.80;99.90;;;;;;5070573;28;19989;-66
2022/10/03 10:44:24;;;;;;;;;;;17.00;99.90;;;;;;5071011;28;19919;-65
2022/10/03 10:47:10;;;;;;;;;;;17.10;99.90;;;;;;5070963;28;19963;-66
2022/10/03 10:49:56;;;;;;;;;;;17.10;99.90;;;;;;5070984;28;19913;-65
2022/10/03 10:52:35;;;;;;;;;;;16.80;99.90;;;;;;5070833;28;20003;-65
2022/10/03 10:55:20;;;;;;;;;;;16.50;99.90;;;;;;5071031;28;19995;-65
2022/10/03 10:58:03;;;;;;;;;;;16.50;99.90;;;;;;5070638;28;19913;-65
2022/10/03 11:00:49;;;;;;;;;;;16.10;99.90;;;;;;5070947;28;19920;-66
2022/10/03 11:03:34;;;;;;;;;;;16.30;99.90;;;;;;5070543;28;19958;-66
2022/10/03 11:06:18;;;;;;;;;;;17.00;99.90;;;;;;5070525;28;19908;-65
2022/10/03 11:08:50;;;;;;;;;;;17.70;99.90;;;;;;5070787;28;19913;-65
2022/10/03 11:11:35;;;;;;;;;;;17.70;99.90;;;;;;5070743;28;20294;-65
2022/10/03 11:14:20;;;;;;;;;;;17.90;99.90;;;;;;5070428;28;20383;-65
2022/10/03 11:17:02;;;;;;;;;;;17.70;99.90;;;;;;5070322;28;20393;-66
2022/10/03 11:19:41;;;;;;;;;;;17.70;99.90;;;;;;5070356;28;19955;-66
2022/10/03 11:25:06;;;;;;;;;;;18.20;99.90;;;;;;5091352;27;19912;-66
2022/10/03 11:30:45;;;;;;;;;;;18.40;99.90;;;;;;5071146;28;20401;-65
2022/10/03 11:33:26;;;;;;;;;;;18.50;99.90;;;;;;5070976;28;20391;-65
2022/10/03 11:36:06;;;;;;;;;;;18.00;99.90;;;;;;5071162;28;19916;-67
2022/10/03 11:38:33;;;;;;;;;;;17.60;99.90;;;;;;5071211;28;20416;-66
2022/10/03 11:41:18;;;;;;;;;;;17.80;99.90;;;;;;5070872;28;19915;-65
2022/10/03 11:43:47;;;;;;;;;;;17.90;99.90;;;;;;5070713;28;19909;-66
2022/10/03 11:46:33;;;;;;;;;;;18.60;99.90;;;;;;5070946;28;20363;-65
2022/10/03 11:49:11;;;;;;;;;;;18.50;99.90;;;;;;5070521;28;20378;-66
2022/10/03 11:51:57;;;;;;;;;;;18.30;99.90;;;;;;5070624;28;19909;-66
2022/10/03 11:54:26;;;;;;;;;;;18.10;99.90;;;;;;5070590;28;19909;-66
2022/10/03 11:57:01;;;;;;;;;;;18.10;99.90;;;;;;5070689;28;19909;-65
2022/10/03 11:59:44;;;;;;;;;;;17.80;99.90;;;;;;5070725;28;19916;-65
2022/10/03 12:02:13;;;;;;;;;;;17.70;99.90;;;;;;5070596;28;19908;-66
2022/10/03 12:04:58;;;;;;;;;;;17.70;99.90;;;;;;5070281;28;19917;-66
2022/10/03 12:10:12;;;;;;;;;;;18.50;99.90;;;;;;5071049;28;19913;-65
2022/10/03 12:12:42;;;;;;;;;;;19.00;99.90;;;;;;5071251;28;20413;-65
2022/10/03 12:15:27;;;;;;;;;;;19.00;99.90;;;;;;5071123;28;20345;-65
2022/10/03 12:18:00;;;;;;;;;;;18.60;99.90;;;;;;5070905;28;20439;-65
2022/10/03 12:20:32;;;;;;;;;;;18.60;99.90;;;;;;5071247;28;19972;-66
2022/10/03 12:23:18;;;;;;;;;;;18.10;99.90;;;;;;5071122;28;19909;-66
2022/10/03 12:25:44;;;;;;;;;;;17.90;99.90;;;;;;5070861;28;19912;-65
2022/10/03 12:28:16;;;;;;;;;;;17.60;99.90;;;;;;5070974;28;20349;-66
2022/10/03 12:31:02;;;;;;;;;;;17.50;99.90;;;;;;5070611;28;20425;-65
2022/10/03 12:33:47;;;;;;;;;;;17.30;99.90;;;;;;5070542;28;20379;-65
2022/10/03 12:36:19;;;;;;;;;;;17.40;99.90;;;;;;5070481;28;19913;-66
2022/10/03 12:39:04;;;;;;;;;;;17.80;99.90;;;;;;5070436;28;20027;-65
2022/10/03 12:41:49;;;;;;;;;;;18.10;99.90;;;;;;5070387;28;19954;-65
2022/10/03 12:44:20;;;;;;;;;;;17.90;99.90;;;;;;5070228;28;19909;-65
2022/10/03 12:47:06;;;;;;;;;;;18.00;99.90;;;;;;5070507;28;19913;-65
2022/10/03 12:49:41;;;;;;;;;;;17.80;99.90;;;;;;5070084;28;20383;-65
2022/10/03 12:52:14;;;;;;;;;;;17.50;99.90;;;;;;5070214;28;19916;-65
2022/10/03 12:54:51;;;;;;;;;;;17.40;99.90;;;;;;5085746;28;20376;-66
2022/10/03 12:57:28;;;;;;;;;;;17.70;99.90;;;;;;5070316;28;19909;-66
2022/10/03 13:00:02;;;;;;;;;;;17.90;99.90;;;;;;5070079;28;19909;-65
2022/10/03 13:02:34;;;;;;;;;;;18.10;99.90;;;;;;5070246;28;20291;-65
2022/10/03 13:05:17;;;;;;;;;;;17.90;99.90;;;;;;5070068;28;19916;-65
2022/10/03 13:08:02;;;;;;;;;;;17.90;99.90;;;;;;5070579;28;19954;-65
2022/10/03 13:10:35;;;;;;;;;;;17.80;99.90;;;;;;5090108;28;19908;-65
2022/10/03 13:15:46;;;;;;;;;;;17.90;99.90;;;;;;5070976;28;19920;-65
2022/10/03 13:18:17;;;;;;;;;;;17.80;99.90;;;;;;5070949;28;20298;-64
2022/10/03 13:20:49;;;;;;;;;;;17.40;99.90;;;;;;5071142;28;19974;-65
2022/10/03 13:23:22;;;;;;;;;;;17.60;99.90;;;;;;5071149;28;20320;-65
2022/10/03 13:26:07;;;;;;;;;;;17.80;99.90;;;;;;5071071;28;19913;-65
2022/10/03 13:28:41;;;;;;;;;;;17.60;99.90;;;;;;5070662;28;19954;-65
2022/10/03 13:31:12;;;;;;;;;;;17.40;99.90;;;;;;5069471;28;19952;-65
2022/10/03 13:33:41;;;;;;;;;;;17.20;99.90;;;;;;5070553;28;19913;-65
2022/10/03 13:36:19;;;;;;;;;;;17.00;99.90;;;;;;5070642;28;19958;-65
2022/10/03 13:39:05;;;;;;;;;;;17.20;99.90;;;;;;5070492;28;19908;-65
2022/10/03 13:41:36;;;;;;;;;;;17.10;99.90;;;;;;5070439;28;19916;-65
2022/10/03 13:44:11;;;;;;;;;;;17.10;99.90;;;;;;5070451;28;19915;-64
2022/10/03 13:46:43;;;;;;;;;;;17.10;99.90;;;;;;5070641;28;20413;-65
2022/10/03 13:49:17;;;;;;;;;;;17.50;99.90;;;;;;5070577;28;19947;-65
2022/10/03 13:51:51;;;;;;;;;;;17.90;99.90;;;;;;5070497;28;19958;-65
2022/10/03 13:54:20;;;;;;;;;;;18.10;99.90;;;;;;5070389;28;20420;-65
2022/10/03 13:56:51;;;;;;;;;;;17.80;99.90;;;;;;5070197;28;20011;-65
2022/10/03 14:02:09;;;;;;;;;;;17.80;99.90;;;;;;5091296;27;19912;-65
2022/10/03 14:04:42;;;;;;;;;;;17.70;99.90;;;;;;5091422;28;19913;-65
2022/10/03 14:07:12;;;;;;;;;;;17.60;99.90;;;;;;5091378;28;20328;-65
2022/10/03 14:09:50;;;;;;;;;;;17.50;99.90;;;;;;5091303;28;19962;-65
2022/10/03 14:12:24;;;;;;;;;;;17.30;99.90;;;;;;5090985;28;19909;-66
2022/10/03 14:15:09;;;;;;;;;;;17.20;99.90;;;;;;5090963;28;20287;-65
2022/10/03 14:17:55;;;;;;;;;;;17.10;99.90;;;;;;5090833;28;20290;-65
2022/10/03 14:20:26;;;;;;;;;;;16.90;99.90;;;;;;5090780;28;20391;-66
2022/10/03 14:22:58;;;;;;;;;;;17.00;99.90;;;;;;5089561;28;19908;-65
2022/10/03 14:25:44;;;;;;;;;;;17.00;99.90;;;;;;5090707;28;20007;-65
2022/10/03 14:28:15;;;;;;;;;;;16.90;99.90;;;;;;5090682;28;19909;-66
2022/10/03 14:30:52;;;;;;;;;;;17.10;99.90;;;;;;5090732;28;19954;-65
2022/10/03 14:33:25;;;;;;;;;;;17.30;99.90;;;;;;5090577;28;20371;-65
2022/10/03 14:35:53;;;;;;;;;;;17.20;99.90;;;;;;5090828;28;20289;-65
2022/10/03 14:41:12;;;;;;;;;;;17.40;99.90;;;;;;5070991;28;19913;-65
2022/10/03 14:43:43;;;;;;;;;;;17.40;99.90;;;;;;5070939;28;19913;-65
2022/10/03 14:46:09;;;;;;;;;;;17.30;99.90;;;;;;5071141;28;20286;-65
2022/10/03 14:48:37;;;;;;;;;;;17.30;99.90;;;;;;5070853;28;20008;-65
2022/10/03 14:51:12;;;;;;;;;;;17.30;99.90;;;;;;5070742;28;19913;-65
2022/10/03 14:53:38;;;;;;;;;;;17.30;99.90;;;;;;5070918;28;19909;-65
2022/10/03 14:56:07;;;;;;;;;;;17.20;99.90;;;;;;5070947;28;20272;-65
2022/10/03 14:58:49;;;;;;;;;;;17.10;99.90;;;;;;5070893;28;19909;-65
2022/10/03 15:01:19;;;;;;;;;;;17.00;99.90;;;;;;5070553;28;19920;-65
2022/10/03 15:03:52;;;;;;;;;;;16.90;99.90;;;;;;5070809;28;20407;-65
2022/10/03 15:06:20;;;;;;;;;;;16.90;99.90;;;;;;5070692;28;19915;-65
2022/10/03 15:08:47;;;;;;;;;;;16.90;99.90;;;;;;5070645;28;19956;-65
2022/10/03 15:11:15;;;;;;;;;;;16.80;99.90;;;;;;5070633;28;19916;-65
2022/10/03 15:14:01;;;;;;;;;;;16.90;99.90;;;;;;5070559;28;19915;-65
2022/10/03 15:16:31;;;;;;;;;;;16.90;99.90;;;;;;5070254;28;19916;-65
2022/10/03 15:19:00;;;;;;;;;;;16.70;99.90;;;;;;5070132;28;19995;-66
2022/10/03 15:21:26;;;;;;;;;;;16.70;99.90;;;;;;5070485;28;20406;-65
2022/10/03 15:23:57;;;;;;;;;;;16.80;99.90;;;;;;5070421;28;19909;-65
2022/10/03 15:26:24;;;;;;;;;;;16.80;99.90;;;;;;5070317;28;20022;-65
2022/10/03 15:28:52;;;;;;;;;;;16.80;99.90;;;;;;5070287;28;19908;-65
2022/10/03 15:31:26;;;;;;;;;;;16.80;99.90;;;;;;5070299;28;19908;-65
2022/10/03 15:33:52;;;;;;;;;;;16.80;99.90;;;;;;5085587;28;20011;-65
2022/10/03 15:36:22;;;;;;;;;;;16.70;99.90;;;;;;5069948;28;19944;-65
2022/10/03 15:38:50;;;;;;;;;;;16.70;99.90;;;;;;5069444;28;20290;-65
2022/10/03 15:41:19;;;;;;;;;;;16.80;99.90;;;;;;5090323;28;19934;-65
2022/10/03 15:43:52;;;;;;;;;;;16.70;99.90;;;;;;5090248;28;19908;-65
2022/10/03 15:46:34;;;;;;;;;;;16.80;99.90;;;;;;5090214;28;20389;-65
2022/10/03 15:49:01;;;;;;;;;;;16.70;99.90;;;;;;5090139;28;20039;-66
2022/10/03 15:51:29;;;;;;;;;;;16.70;99.90;;;;;;5082402;28;19918;-65
2022/10/03 15:53:57;;;;;;;;;;;16.70;99.90;;;;;;5076539;28;19923;-66
2022/10/03 15:56:26;;;;;;;;;;;16.50;99.90;;;;;;5076532;28;20382;-65
2022/10/03 15:58:54;;;;;;;;;;;16.40;99.90;;;;;;5076422;28;20409;-66
2022/10/03 16:01:28;;;;;;;;;;;16.40;99.90;;;;;;5076371;28;20030;-65
2022/10/03 16:04:14;;;;;;;;;;;16.30;99.90;;;;;;5076114;28;19908;-65
2022/10/03 16:07:02;;;;;;;;;;;16.20;99.90;;;;;;5058010;28;19912;-65
2022/10/03 16:09:36;;;;;;;;;;;16.10;99.90;;;;;;5075996;28;19931;-66
2022/10/03 16:12:21;;;;;;;;;;;16.00;99.90;;;;;;5076013;28;19916;-65
2022/10/03 16:14:50;;;;;;;;;;;15.90;99.90;;;;;;5075768;28;19909;-65
2022/10/03 16:17:19;;;;;;;;;;;15.80;99.90;;;;;;5076168;28;19947;-65
2022/10/03 16:19:53;;;;;;;;;;;15.60;99.90;;;;;;5076060;28;19912;-65
2022/10/03 16:22:39;;;;;;;;;;;15.60;99.90;;;;;;5076059;28;19926;-66
2022/10/03 16:25:24;;;;;;;;;;;15.50;99.90;;;;;;5075680;28;20008;-66
2022/10/03 16:28:01;;;;;;;;;;;15.30;99.90;;;;;;5075528;28;20383;-65
2022/10/03 16:30:28;;;;;;;;;;;15.20;99.90;;;;;;5075944;28;19957;-65
2022/10/03 16:33:14;;;;;;;;;;;15.00;99.90;;;;;;5075629;28;20010;-65
2022/10/03 16:35:44;;;;;;;;;;;14.90;99.90;;;;;;5075400;28;19912;-65
2022/10/03 16:38:17;;;;;;;;;;;14.80;99.90;;;;;;5075776;28;19930;-65
2022/10/03 16:40:49;;;;;;;;;;;14.70;99.90;;;;;;5075210;28;19928;-65
2022/10/03 16:43:16;;;;;;;;;;;14.50;99.90;;;;;;5075666;28;19908;-65